createdAt,value
2022-10-19T00:01:33.497Z,100947.19
2022-10-19T00:04:02.482Z,100942.09
2022-10-19T00:06:36.405Z,100942.63
2022-10-19T00:09:06.877Z,100945.63
2022-10-19T00:11:34.999Z,100948.94
2022-10-19T00:14:02.075Z,100936.84
2022-10-19T00:16:32.428Z,100943.56
2022-10-19T00:19:01.250Z,100938.37
2022-10-19T00:21:28.722Z,100938.66
2022-10-19T00:23:55.431Z,100938.69
2022-10-19T00:26:22.239Z,100932.72
2022-10-19T00:28:50.011Z,100928.31
2022-10-19T00:31:17.924Z,100929.16
2022-10-19T00:33:49.406Z,100919.13
2022-10-19T00:36:21.469Z,100919.13
2022-10-19T00:38:48.648Z,100918.78
2022-10-19T00:41:16.451Z,100915.53
2022-10-19T00:43:54.269Z,100911.34
2022-10-19T00:46:21.432Z,100912.91
2022-10-19T00:51:16.145Z,100903.91
2022-10-19T00:53:42.756Z,100906.22
2022-10-19T00:56:13.943Z,100903.78
2022-10-19T00:58:41.845Z,100909.91
2022-10-19T01:01:10.891Z,100905.41
2022-10-19T01:03:39.495Z,100902.97
2022-10-19T01:06:06.569Z,100904.25
2022-10-19T01:08:33.683Z,100894.44
2022-10-19T01:11:22.195Z,100896.28
2022-10-19T01:14:19.246Z,100886.56
2022-10-19T01:17:23.883Z,100881.16
2022-10-19T01:19:53.263Z,100865.84
2022-10-19T01:22:51.040Z,100866.19
2022-10-19T01:25:28.484Z,100862.56
2022-10-19T01:28:16.983Z,100861.63
2022-10-19T01:31:01.970Z,100864.91
2022-10-19T01:33:46.113Z,100861.00
2022-10-19T01:36:22.146Z,100863.59
2022-10-19T01:39:06.795Z,100856.66
2022-10-19T01:42:05.633Z,100847.09
2022-10-19T01:44:54.099Z,100850.97
2022-10-19T01:47:26.247Z,100848.38
2022-10-19T01:50:01.828Z,100851.25
2022-10-19T01:52:29.942Z,100852.19
2022-10-19T01:54:58.413Z,100843.91
2022-10-19T01:57:37.067Z,100845.19
2022-10-19T02:00:07.604Z,100846.03
2022-10-19T02:02:36.620Z,100840.78
2022-10-19T02:05:06.079Z,100829.66
2022-10-19T02:07:33.968Z,100826.34
2022-10-19T02:10:01.332Z,100842.94
2022-10-19T02:12:31.041Z,100837.63
2022-10-19T02:15:02.047Z,100839.00
2022-10-19T02:17:38.056Z,100836.47
2022-10-19T02:20:05.121Z,100830.50
2022-10-19T02:22:31.875Z,100831.91
2022-10-19T02:24:58.891Z,100833.53
2022-10-19T02:27:25.998Z,100840.28
2022-10-19T02:29:53.942Z,100828.12
2022-10-19T02:32:20.711Z,100837.25
2022-10-19T02:34:47.502Z,100833.81
2022-10-19T02:37:14.187Z,100842.62
2022-10-19T02:39:40.844Z,100847.63
2022-10-19T02:42:15.077Z,100839.84
2022-10-19T02:44:48.395Z,100836.41
2022-10-19T02:47:27.840Z,100845.00
2022-10-19T02:49:54.383Z,100837.34
2022-10-19T02:52:20.939Z,100845.22
2022-10-19T02:54:47.514Z,100841.13
2022-10-19T02:57:22.766Z,100833.81
2022-10-19T02:59:49.721Z,100838.66
2022-10-19T03:02:17.557Z,100840.34
2022-10-19T03:04:45.251Z,100838.66
2022-10-19T03:07:14.881Z,100834.06
2022-10-19T03:09:42.426Z,100844.03
2022-10-19T03:12:09.615Z,100848.41
2022-10-19T03:14:36.176Z,100834.38
2022-10-19T03:17:03.227Z,100833.66
2022-10-19T03:19:30.011Z,100840.16
2022-10-19T03:21:59.422Z,100843.78
2022-10-19T03:24:26.138Z,100839.75
2022-10-19T03:26:52.998Z,100836.41
2022-10-19T03:29:19.575Z,100842.22
2022-10-19T03:31:46.121Z,100839.97
2022-10-19T03:34:12.681Z,100840.87
2022-10-19T03:36:40.660Z,100837.63
2022-10-19T03:39:11.469Z,100840.59
2022-10-19T03:41:39.053Z,100830.66
2022-10-19T03:44:07.329Z,100830.13
2022-10-19T03:46:35.570Z,100824.47
2022-10-19T03:49:03.114Z,100837.78
2022-10-19T03:51:31.286Z,100834.06
2022-10-19T03:54:06.674Z,100840.25
2022-10-19T03:56:35.176Z,100850.09
2022-10-19T03:59:04.068Z,100848.81
2022-10-19T04:01:33.879Z,100846.84
2022-10-19T04:04:02.876Z,100846.78
2022-10-19T04:06:40.478Z,100843.75
2022-10-19T04:09:08.308Z,100845.47
2022-10-19T04:11:35.724Z,100837.63
2022-10-19T04:14:02.689Z,100833.81
2022-10-19T04:16:30.819Z,100834.59
2022-10-19T04:18:57.856Z,100833.16
2022-10-19T04:21:31.787Z,100837.03
2022-10-19T04:24:18.628Z,100839.63
2022-10-19T04:26:48.048Z,100828.62
2022-10-19T04:29:16.089Z,100829.06
2022-10-19T04:31:42.790Z,100837.37
2022-10-19T04:34:09.701Z,100844.94
2022-10-19T04:36:36.715Z,100839.03
2022-10-19T04:39:04.665Z,100840.25
2022-10-19T04:41:31.468Z,100836.25
2022-10-19T04:43:59.858Z,100831.41
2022-10-19T04:46:27.677Z,100829.13
2022-10-19T04:48:55.636Z,100826.69
2022-10-19T04:51:24.323Z,100832.16
2022-10-19T04:53:51.912Z,100825.44
2022-10-19T04:56:22.369Z,100822.91
2022-10-19T04:58:49.424Z,100825.41
2022-10-19T05:01:19.370Z,100818.22
2022-10-19T05:03:46.794Z,100817.88
2022-10-19T05:06:15.317Z,100832.44
2022-10-19T05:08:42.192Z,100828.44
2022-10-19T05:11:12.652Z,100825.84
2022-10-19T05:13:39.217Z,100828.53
2022-10-19T05:16:08.364Z,100831.88
2022-10-19T05:18:35.584Z,100830.94
2022-10-19T05:21:07.940Z,100831.91
2022-10-19T05:23:35.015Z,100839.50
2022-10-19T05:26:10.955Z,100852.53
2022-10-19T05:28:37.992Z,100857.97
2022-10-19T05:31:12.623Z,100866.06
2022-10-19T05:33:39.767Z,100859.38
2022-10-19T05:36:34.315Z,100848.81
2022-10-19T05:39:13.146Z,100851.63
2022-10-19T05:41:41.826Z,100857.84
2022-10-19T05:44:12.047Z,100855.38
2022-10-19T05:46:38.595Z,100868.25
2022-10-19T05:49:05.212Z,100859.97
2022-10-19T05:51:31.755Z,100862.78
2022-10-19T05:53:58.456Z,100870.03
2022-10-19T05:56:28.519Z,100868.91
2022-10-19T05:58:56.992Z,100867.81
2022-10-19T06:01:23.911Z,100882.91
2022-10-19T06:03:55.177Z,100884.78
2022-10-19T06:06:22.701Z,100882.16
2022-10-19T06:08:50.237Z,100884.47
2022-10-19T06:11:23.890Z,100888.41
2022-10-19T06:13:51.733Z,100885.56
2022-10-19T06:16:19.512Z,100893.88
2022-10-19T06:18:46.773Z,100896.75
2022-10-19T06:21:15.921Z,100895.75
2022-10-19T06:23:43.278Z,100896.00
2022-10-19T06:26:13.092Z,100900.03
2022-10-19T06:28:41.397Z,100903.06
2022-10-19T06:31:09.392Z,100903.69
2022-10-19T06:33:36.827Z,100903.47
2022-10-19T06:36:11.505Z,100898.47
2022-10-19T06:38:38.615Z,100910.31
2022-10-19T06:41:06.124Z,100909.53
2022-10-19T06:43:33.591Z,100911.34
2022-10-19T06:46:04.614Z,100924.97
2022-10-19T06:48:31.376Z,100922.13
2022-10-19T06:50:59.487Z,100927.12
2022-10-19T06:53:27.244Z,100934.78
2022-10-19T06:55:53.917Z,100936.94
2022-10-19T06:58:20.719Z,100948.75
2022-10-19T07:00:55.015Z,100952.75
2022-10-19T07:03:21.673Z,100953.50
2022-10-19T07:05:59.011Z,100953.03
2022-10-19T07:08:27.923Z,100963.50
2022-10-19T07:11:00.315Z,100971.06
2022-10-19T07:13:30.109Z,100969.13
2022-10-19T07:15:59.155Z,100972.37
2022-10-19T07:18:27.340Z,100971.94
2022-10-19T07:20:58.685Z,100967.91
2022-10-19T07:23:27.174Z,100963.88
2022-10-19T07:25:55.480Z,100967.97
2022-10-19T07:28:22.491Z,100965.13
2022-10-19T07:30:49.299Z,100966.94
2022-10-19T07:35:43.195Z,100970.19
2022-10-19T07:38:10.032Z,100974.50
2022-10-19T07:40:57.400Z,100974.62
2022-10-19T07:47:08.582Z,100977.91
2022-10-19T07:49:35.285Z,100980.06
2022-10-19T07:52:02.058Z,100980.03
2022-10-19T07:54:29.100Z,100982.41
2022-10-19T07:56:56.134Z,100982.97
2022-10-19T07:59:23.204Z,100982.34
2022-10-19T08:01:50.518Z,100980.63
2022-10-19T08:07:04.284Z,100973.19
2022-10-19T08:09:51.952Z,100970.88
2022-10-19T08:12:17.760Z,100961.44
2022-10-19T08:14:44.490Z,100965.47
2022-10-19T08:17:16.646Z,100963.94
2022-10-19T08:19:44.581Z,100960.03
2022-10-19T08:22:11.757Z,100963.88
2022-10-19T08:24:38.542Z,100966.94
2022-10-19T08:27:08.715Z,100971.38
2022-10-19T08:29:35.969Z,100964.62
2022-10-19T08:32:02.798Z,100973.59
2022-10-19T08:34:29.652Z,100976.91
2022-10-19T08:36:56.965Z,100974.47
2022-10-19T08:39:26.376Z,100978.84
2022-10-19T08:42:08.658Z,100980.88
2022-10-19T08:45:01.071Z,100975.16
2022-10-19T08:47:46.648Z,100971.88
2022-10-19T08:50:25.674Z,100973.16
2022-10-19T08:53:02.477Z,100975.28
2022-10-19T08:55:44.607Z,100978.63
2022-10-19T08:58:33.364Z,100976.22
2022-10-19T09:01:28.194Z,100979.25
2022-10-19T09:04:25.577Z,100974.81
2022-10-19T09:07:49.300Z,100976.03
2022-10-19T09:10:44.432Z,100979.72
2022-10-19T09:14:04.867Z,100972.84
2022-10-19T09:16:32.677Z,100981.44
2022-10-19T09:18:59.253Z,100983.28
2022-10-19T09:21:47.818Z,100977.06
2022-10-19T09:24:41.927Z,100979.63
2022-10-19T09:27:22.950Z,100980.72
2022-10-19T09:30:03.725Z,100973.19
2022-10-19T09:32:35.587Z,100983.31
2022-10-19T09:35:28.200Z,100980.75
2022-10-19T09:37:55.819Z,100974.59
2022-10-19T09:40:29.016Z,100978.81
2022-10-19T09:43:09.515Z,100980.50
2022-10-19T09:45:44.999Z,100983.13
2022-10-19T09:48:35.974Z,100988.16
2022-10-19T09:51:10.774Z,100987.28
2022-10-19T09:53:37.906Z,100988.47
2022-10-19T09:56:08.782Z,100987.66
2022-10-19T09:58:35.835Z,100991.88
2022-10-19T10:01:03.563Z,100980.25
2022-10-19T10:03:40.286Z,100978.44
2022-10-19T10:06:17.884Z,100971.53
2022-10-19T10:08:50.009Z,100969.78
2022-10-19T10:11:25.051Z,100961.78
2022-10-19T10:13:54.301Z,100962.03
2022-10-19T10:16:23.700Z,100965.13
2022-10-19T10:18:55.214Z,100961.66
2022-10-19T10:21:32.061Z,100964.72
2022-10-19T10:24:11.644Z,100968.91
2022-10-19T10:26:42.846Z,100951.94
2022-10-19T10:29:28.176Z,100957.94
2022-10-19T10:32:17.933Z,100948.44
2022-10-19T10:34:59.873Z,100941.28
2022-10-19T10:37:40.004Z,100937.38
2022-10-19T10:40:23.395Z,100936.84
2022-10-19T10:42:52.749Z,100929.91
2022-10-19T10:45:42.762Z,100931.63
2022-10-19T10:48:29.342Z,100923.94
2022-10-19T10:50:58.197Z,100919.66
2022-10-19T10:53:39.918Z,100924.50
2022-10-19T10:56:21.746Z,100914.75
2022-10-19T10:58:53.869Z,100916.19
2022-10-19T11:01:23.918Z,100908.97
2022-10-19T11:04:03.673Z,100914.19
2022-10-19T11:06:31.616Z,100908.44
2022-10-19T11:08:58.178Z,100906.22
2022-10-19T11:11:35.308Z,100891.84
2022-10-19T11:14:30.740Z,100888.44
2022-10-19T11:17:02.765Z,100887.34
2022-10-19T11:19:36.858Z,100888.97
2022-10-19T11:22:35.991Z,100882.69
2022-10-19T11:25:32.294Z,100887.47
2022-10-19T11:28:11.518Z,100882.69
2022-10-19T11:30:55.659Z,100879.22
2022-10-19T11:33:28.422Z,100880.03
2022-10-19T11:35:59.626Z,100879.00
2022-10-19T11:38:56.062Z,100874.22
2022-10-19T11:42:07.741Z,100861.88
2022-10-19T11:44:40.366Z,100864.31
2022-10-19T11:47:19.243Z,100855.59
2022-10-19T11:49:55.110Z,100850.63
2022-10-19T11:52:56.312Z,100858.56
2022-10-19T11:55:38.218Z,100848.19
2022-10-19T11:58:19.988Z,100849.75
2022-10-19T12:01:17.131Z,100849.22
2022-10-19T12:04:11.884Z,100856.09
2022-10-19T12:06:58.449Z,100854.75
2022-10-19T12:09:39.719Z,100856.84
2022-10-19T12:12:22.264Z,100860.13
2022-10-19T12:14:53.459Z,100853.97
2022-10-19T12:17:33.094Z,100853.06
2022-10-19T12:20:05.340Z,100851.69
2022-10-19T12:22:34.380Z,100850.37
2022-10-19T12:25:01.925Z,100854.06
2022-10-19T12:27:34.788Z,100849.25
2022-10-19T12:30:23.035Z,100846.09
2022-10-19T12:33:03.581Z,100847.44
2022-10-19T12:35:39.201Z,100851.59
2022-10-19T12:38:24.564Z,100843.22
2022-10-19T12:41:18.230Z,100839.47
2022-10-19T12:44:00.087Z,100839.22
2022-10-19T12:46:42.192Z,100836.84
2022-10-19T12:49:30.313Z,100831.06
2022-10-19T12:52:01.780Z,100830.94
2022-10-19T12:54:31.248Z,100827.34
2022-10-19T12:57:00.264Z,100830.25
2022-10-19T12:59:33.107Z,100829.84
2022-10-19T13:02:02.235Z,100828.12
2022-10-19T13:04:34.949Z,100821.78
2022-10-19T13:07:18.308Z,100816.84
2022-10-19T13:09:48.241Z,100825.22
2022-10-19T13:12:21.828Z,100812.78
2022-10-19T13:14:57.283Z,100806.63
2022-10-19T13:17:49.969Z,100812.12
2022-10-19T13:20:19.455Z,100810.13
2022-10-19T13:23:13.193Z,100804.72
2022-10-19T13:25:40.591Z,100802.19
2022-10-19T13:28:07.058Z,100809.34
2022-10-19T13:30:39.677Z,100811.69
2022-10-19T13:33:24.805Z,100806.37
2022-10-19T13:36:00.192Z,100810.34
2022-10-19T13:39:05.931Z,100811.19
2022-10-19T13:41:38.569Z,100817.38
2022-10-19T13:44:25.390Z,100824.97
2022-10-19T13:47:07.523Z,100814.03
2022-10-19T13:49:43.069Z,100820.06
2022-10-19T13:52:28.277Z,100813.13
2022-10-19T13:55:36.178Z,100819.50
2022-10-19T13:58:27.040Z,100819.66
2022-10-19T14:00:56.510Z,100814.56
2022-10-19T14:03:35.640Z,100815.59
2022-10-19T14:06:13.613Z,100817.09
2022-10-19T14:08:46.214Z,100815.97
2022-10-19T14:11:15.025Z,100812.84
2022-10-19T14:13:41.848Z,100816.94
2022-10-19T14:16:19.598Z,100811.62
2022-10-19T14:18:53.946Z,100824.31
2022-10-19T14:21:31.210Z,100828.28
2022-10-19T14:23:57.830Z,100823.25
2022-10-19T14:26:28.622Z,100817.28
2022-10-19T14:28:57.313Z,100819.34
2022-10-19T14:31:35.314Z,100818.47
2022-10-19T14:34:04.767Z,100818.06
2022-10-19T14:36:36.649Z,100821.62
2022-10-19T14:39:03.743Z,100828.69
2022-10-19T14:41:36.319Z,100831.03
2022-10-19T14:44:28.640Z,100827.72
2022-10-19T14:46:55.556Z,100827.81
2022-10-19T14:49:22.155Z,100824.00
2022-10-19T14:51:54.387Z,100820.94
2022-10-19T14:54:31.415Z,100823.16
2022-10-19T14:57:15.819Z,100817.94
2022-10-19T14:59:53.317Z,100818.38
2022-10-19T15:02:36.884Z,100813.81
2022-10-19T15:05:06.474Z,100818.28
2022-10-19T15:07:40.075Z,100811.03
2022-10-19T15:10:16.107Z,100806.69
2022-10-19T15:12:43.632Z,100812.03
2022-10-19T15:15:26.837Z,100815.91
2022-10-19T15:18:06.410Z,100815.00
2022-10-19T15:20:54.989Z,100816.94
2022-10-19T15:23:29.075Z,100817.16
2022-10-19T15:26:00.857Z,100832.34
2022-10-19T15:28:37.420Z,100824.91
2022-10-19T15:31:28.647Z,100827.28
2022-10-19T15:33:58.470Z,100826.13
2022-10-19T15:36:26.088Z,100823.97
2022-10-19T15:39:06.411Z,100831.84
2022-10-19T15:41:45.409Z,100829.78
2022-10-19T15:44:40.972Z,100813.66
2022-10-19T15:47:21.554Z,100811.09
2022-10-19T15:50:00.473Z,100823.59
2022-10-19T15:52:33.660Z,100834.19
2022-10-19T15:55:01.283Z,100838.97
2022-10-19T15:57:34.117Z,100848.28
2022-10-19T16:00:13.686Z,100853.84
2022-10-19T16:02:40.887Z,100853.41
2022-10-19T16:05:07.954Z,100857.84
2022-10-19T16:07:38.249Z,100853.25
2022-10-19T16:10:05.962Z,100862.91
2022-10-19T16:12:33.357Z,100866.56
2022-10-19T16:14:59.908Z,100878.06
2022-10-19T16:17:29.926Z,100870.63
2022-10-19T16:19:59.465Z,100867.87
2022-10-19T16:22:31.327Z,100871.56
2022-10-19T16:25:00.814Z,100862.78
2022-10-19T16:27:27.440Z,100857.97
2022-10-19T16:29:54.685Z,100858.47
2022-10-19T16:32:21.324Z,100871.78
2022-10-19T16:34:47.876Z,100871.34
2022-10-19T16:37:14.416Z,100875.50
2022-10-19T16:39:40.963Z,100877.78
2022-10-19T16:42:07.717Z,100876.44
2022-10-19T16:44:34.312Z,100885.06
2022-10-19T16:47:00.943Z,100893.38
2022-10-19T16:49:27.585Z,100907.09
2022-10-19T16:51:57.196Z,100908.47
2022-10-19T16:54:26.585Z,100912.88
2022-10-19T16:56:53.289Z,100901.59
2022-10-19T16:59:19.890Z,100913.88
2022-10-19T17:01:47.058Z,100911.53
2022-10-19T17:04:15.384Z,100910.41
2022-10-19T17:06:42.217Z,100903.88
2022-10-19T17:09:40.921Z,100903.28
2022-10-19T17:11:55.844Z,100910.19
2022-10-19T17:14:22.394Z,100921.44
2022-10-19T17:16:49.044Z,100924.69
2022-10-19T17:19:15.739Z,100934.88
2022-10-19T17:21:42.654Z,100932.13
2022-10-19T17:24:17.149Z,100944.66
2022-10-19T17:26:48.878Z,100933.38
2022-10-19T17:29:15.447Z,100941.47
2022-10-19T17:31:42.688Z,100942.91
2022-10-19T17:34:09.647Z,100941.75
2022-10-19T17:39:19.364Z,100939.16
2022-10-19T17:41:48.008Z,100929.31
2022-10-19T17:44:15.544Z,100927.91
2022-10-19T17:46:42.347Z,100925.09
2022-10-19T17:49:09.841Z,100927.06
2022-10-19T17:51:37.654Z,100924.28
2022-10-19T17:54:11.367Z,100928.28
2022-10-19T17:56:38.892Z,100931.34
2022-10-19T17:59:07.957Z,100934.94
2022-10-19T18:01:35.317Z,100942.19
2022-10-19T18:04:01.922Z,100937.56
2022-10-19T18:06:34.020Z,100946.22
2022-10-19T18:09:01.962Z,100953.06
2022-10-19T18:11:32.070Z,100955.50
2022-10-19T18:14:00.835Z,100944.44
2022-10-19T18:16:30.709Z,100944.66
2022-10-19T18:18:59.173Z,100947.25
2022-10-19T18:21:30.088Z,100952.09
2022-10-19T18:23:58.489Z,100949.69
2022-10-19T18:26:27.639Z,100965.34
2022-10-19T18:28:55.380Z,100964.31
2022-10-19T18:31:25.151Z,100966.91
2022-10-19T18:34:00.823Z,100963.69
2022-10-19T18:36:27.505Z,100970.69
2022-10-19T18:38:57.082Z,100985.34
2022-10-19T18:41:24.347Z,100991.97
2022-10-19T18:43:56.865Z,100983.72
2022-10-19T18:46:25.152Z,100974.06
2022-10-19T18:48:52.070Z,100984.91
2022-10-19T18:51:19.273Z,100986.69
2022-10-19T18:53:47.334Z,101000.50
2022-10-19T18:56:16.543Z,100996.91
2022-10-19T18:58:43.137Z,100976.81
2022-10-19T19:01:12.380Z,100993.66
2022-10-19T19:03:41.192Z,101008.09
2022-10-19T19:06:13.490Z,101002.63
2022-10-19T19:08:40.616Z,100999.00
2022-10-19T19:11:11.549Z,101012.22
2022-10-19T19:13:38.870Z,101016.41
2022-10-19T19:16:06.320Z,101003.53
2022-10-19T19:18:34.155Z,101010.94
2022-10-19T19:21:20.182Z,101027.94
2022-10-19T19:23:47.847Z,101030.69
2022-10-19T19:26:15.529Z,101022.97
2022-10-19T19:28:44.218Z,101024.50
2022-10-19T19:31:15.303Z,101011.53
2022-10-19T19:33:43.306Z,101022.63
2022-10-19T19:36:11.898Z,101021.66
2022-10-19T19:38:38.433Z,101020.37
2022-10-19T19:41:07.620Z,101032.88
2022-10-19T19:43:37.057Z,101031.44
2022-10-19T19:46:09.484Z,101042.59
2022-10-19T19:48:36.870Z,101041.41
2022-10-19T19:51:03.628Z,101041.22
2022-10-19T19:53:30.348Z,101051.03
2022-10-19T19:55:56.959Z,101061.63
2022-10-19T19:58:23.510Z,101068.97
2022-10-19T20:00:50.094Z,101061.63
2022-10-19T20:03:16.663Z,101062.81
2022-10-19T20:05:43.216Z,101059.31
2022-10-19T20:08:10.056Z,101064.31
2022-10-19T20:10:41.315Z,101060.53
2022-10-19T20:13:08.177Z,101073.59
2022-10-19T20:15:38.440Z,101087.91
2022-10-19T20:18:06.009Z,101072.44
2022-10-19T20:20:32.607Z,101070.59
2022-10-19T20:22:59.235Z,101076.91
2022-10-19T20:25:25.840Z,101081.06
2022-10-19T20:27:52.499Z,101082.16
2022-10-19T20:30:19.126Z,101078.63
2022-10-19T20:32:45.666Z,101095.25
2022-10-19T20:35:12.219Z,101093.81
2022-10-19T20:37:38.854Z,101090.59
2022-10-19T20:40:08.833Z,101097.59
2022-10-19T20:42:36.320Z,101108.75
2022-10-19T20:45:03.702Z,101105.53
2022-10-19T20:47:30.369Z,101100.34
2022-10-19T20:49:57.097Z,101109.25
2022-10-19T20:52:23.779Z,101112.16
2022-10-19T20:54:52.459Z,101112.94
2022-10-19T20:57:19.001Z,101119.75
2022-10-19T20:59:45.788Z,101111.66
2022-10-19T21:02:12.456Z,101120.19
2022-10-19T21:04:39.043Z,101122.63
2022-10-19T21:07:05.651Z,101126.31
2022-10-19T21:09:32.354Z,101119.50
2022-10-19T21:11:59.168Z,101122.09
2022-10-19T21:14:28.964Z,101122.41
2022-10-19T21:17:00.312Z,101121.91
2022-10-19T21:19:30.848Z,101124.94
2022-10-19T21:22:01.753Z,101130.84
2022-10-19T21:24:34.206Z,101137.00
2022-10-19T21:27:03.976Z,101142.31
2022-10-19T21:29:31.131Z,101142.09
2022-10-19T21:31:57.838Z,101141.59
2022-10-19T21:34:27.501Z,101133.53
2022-10-19T21:36:54.644Z,101131.56
2022-10-19T21:39:21.285Z,101135.69
2022-10-19T21:41:48.565Z,101122.59
2022-10-19T21:44:16.454Z,101133.16
2022-10-19T21:46:43.635Z,101132.97
2022-10-19T21:49:12.186Z,101129.63
2022-10-19T21:52:05.061Z,101131.50
2022-10-19T21:54:31.592Z,101129.00
2022-10-19T21:57:00.363Z,101136.81
2022-10-19T21:59:27.062Z,101136.97
2022-10-19T22:04:59.024Z,101149.37
2022-10-19T22:07:25.549Z,101148.28
2022-10-19T22:09:52.466Z,101141.25
2022-10-19T22:12:19.004Z,101140.19
2022-10-19T22:14:45.564Z,101133.62
2022-10-19T22:17:12.281Z,101136.72
2022-10-19T22:19:38.823Z,101137.88
2022-10-19T22:22:05.435Z,101131.91
2022-10-19T22:24:31.951Z,101136.72
2022-10-19T22:26:58.525Z,101128.44
2022-10-19T22:29:25.097Z,101125.72
2022-10-19T22:31:51.656Z,101123.28
2022-10-19T22:34:18.273Z,101127.81
2022-10-19T22:36:45.248Z,101126.56
2022-10-19T22:39:12.780Z,101127.50
2022-10-19T22:41:39.310Z,101127.66
2022-10-19T22:44:06.066Z,101125.88
2022-10-19T22:46:32.805Z,101133.13
2022-10-19T22:48:59.422Z,101131.59
2022-10-19T22:51:26.000Z,101142.56
2022-10-19T22:53:52.569Z,101133.88
2022-10-19T22:56:19.165Z,101147.44
2022-10-19T22:58:45.750Z,101147.69
2022-10-19T23:01:14.841Z,101144.81
2022-10-19T23:03:42.197Z,101146.69
2022-10-19T23:06:11.049Z,101148.31
2022-10-19T23:08:38.077Z,101148.00
2022-10-19T23:11:05.326Z,101156.59
2022-10-19T23:13:32.016Z,101150.88
2022-10-19T23:15:58.609Z,101156.28
2022-10-19T23:18:25.192Z,101152.22
2022-10-19T23:21:00.248Z,101155.59
2022-10-19T23:23:28.370Z,101150.34
2022-10-19T23:26:06.739Z,101161.66
2022-10-19T23:28:35.465Z,101160.28
2022-10-19T23:31:17.050Z,101158.16
2022-10-19T23:33:44.409Z,101161.34
2022-10-19T23:36:15.674Z,101163.13
2022-10-19T23:38:43.901Z,101169.37
2022-10-19T23:41:11.181Z,101165.13
2022-10-19T23:43:37.985Z,101170.22
2022-10-19T23:46:04.618Z,101175.72
2022-10-19T23:48:31.211Z,101185.25
2022-10-19T23:51:03.276Z,101184.28
2022-10-19T23:53:34.642Z,101180.81
2022-10-19T23:56:07.004Z,101186.56
2022-10-19T23:58:34.337Z,101190.59
